Time;durP1;ratioP1;P1;durP2;ratioP2;P2;SDS_P1;SDS_P2;PMS_P1;PMS_P2;Temp;Humidity;BMP_temperature;BMP_pressure;BME280_temperature;BME280_humidity;BME280_pressure;Samples;Min_cycle;Max_cycle;Signal;HPM_P1;HPM_P2
2020/12/29 00:00:58;;;;;;;3.40;2.10;;;;;;;1.95;93.47;151868.00;5068975;27;20450;-76
2020/12/29 00:03:33;;;;;;;2.30;1.87;;;;;;;1.91;94.27;151857.69;5076949;27;20953;-76
2020/12/29 00:06:08;;;;;;;3.00;1.90;;;;;;;1.86;95.64;151844.84;5078502;27;20433;-76
2020/12/29 00:08:44;;;;;;;2.50;1.57;;;;;;;1.83;96.61;151838.41;5072401;27;20445;-77
2020/12/29 00:11:19;;;;;;;1.90;1.70;;;;;;;1.87;96.85;151846.13;5093378;27;21055;-76
2020/12/29 00:13:55;;;;;;;1.77;1.33;;;;;;;1.84;97.81;151839.72;5067128;27;20459;-77
2020/12/29 00:16:31;;;;;;;1.20;1.10;;;;;;;1.84;97.84;151839.72;5071556;27;20442;-76
2020/12/29 00:19:07;;;;;;;1.77;1.07;;;;;;;1.86;97.88;151844.84;5060179;27;20459;-76
2020/12/29 00:21:43;;;;;;;2.23;1.87;;;;;;;1.88;98.72;151848.72;5062306;27;20446;-76
2020/12/29 00:24:18;;;;;;;1.10;0.80;;;;;;;1.81;99.77;151833.28;5116924;27;21039;-76
2020/12/29 00:26:54;;;;;;;1.97;1.37;;;;;;;1.86;99.44;151844.84;5090131;27;20935;-76
2020/12/29 00:29:30;;;;;;;1.17;1.03;;;;;;;1.85;99.99;151842.28;5068622;27;20451;-76
2020/12/29 00:32:06;;;;;;;1.47;1.30;;;;;;;1.83;100.00;151837.13;5064104;27;20779;-76
2020/12/29 00:34:41;;;;;;;1.67;1.20;;;;;;;1.80;100.00;151830.69;5072016;27;21186;-76
2020/12/29 00:37:17;;;;;;;1.70;1.00;;;;;;;1.81;100.00;151832.00;5056340;27;20443;-76
2020/12/29 00:39:52;;;;;;;1.23;1.13;;;;;;;1.86;100.00;151844.84;5089175;27;20439;-76
2020/12/29 00:42:27;;;;;;;0.83;0.73;;;;;;;1.83;100.00;151837.13;5088721;27;20449;-76
2020/12/29 00:45:03;;;;;;;1.50;0.77;;;;;;;1.81;100.00;151832.00;5080659;27;20446;-76
2020/12/29 00:47:39;;;;;;;1.07;0.80;;;;;;;1.79;100.00;151828.16;5110199;27;20441;-76
2020/12/29 00:50:14;;;;;;;1.03;0.93;;;;;;;1.80;100.00;151830.69;5045540;27;20443;-76
2020/12/29 00:52:49;;;;;;;1.20;0.80;;;;;;;1.82;100.00;151834.56;5076216;27;20456;-76
2020/12/29 00:55:34;;;;;;;1.33;0.87;;;;;;;1.80;100.00;151830.69;5059516;27;20912;-88
2020/12/29 00:58:10;;;;;;;1.87;0.90;;;;;;;1.82;100.00;151835.88;5023605;28;20451;-88
2020/12/29 01:00:46;;;;;;;1.00;0.90;;;;;;;1.87;100.00;151847.41;5042786;27;20907;-87
2020/12/29 01:03:22;;;;;;;1.60;1.00;;;;;;;1.90;100.00;151853.84;5076947;27;20441;-88
2020/12/29 01:05:57;;;;;;;0.87;0.80;;;;;;;1.95;100.00;151868.00;5057356;27;20960;-88
2020/12/29 01:08:33;;;;;;;0.90;0.70;;;;;;;2.03;100.00;151888.56;5036654;28;20447;-88
2020/12/29 01:11:09;;;;;;;0.90;0.70;;;;;;;2.08;100.00;151901.41;5065606;27;20433;-88
2020/12/29 01:13:51;;;;;;;1.17;0.97;;;;;;;2.12;100.00;151910.44;5054559;27;20925;-88
2020/12/29 01:16:27;;;;;;;0.80;0.60;;;;;;;2.09;100.00;151903.94;5030992;28;20467;-88
2020/12/29 01:19:05;;;;;;;2.90;1.20;;;;;;;2.08;100.00;151901.41;5025698;28;20544;-88
2020/12/29 01:21:40;;;;;;;2.10;0.50;;;;;;;2.15;100.00;151919.41;5048512;28;20548;-88
2020/12/29 01:24:16;;;;;;;0.80;0.60;;;;;;;2.10;100.00;151906.53;5022249;28;20448;-87
2020/12/29 01:26:51;;;;;;;0.67;0.53;;;;;;;2.16;100.00;151921.97;5030420;28;20431;-88
2020/12/29 01:29:27;;;;;;;0.80;0.60;;;;;;;2.14;100.00;151916.84;5019267;28;20813;-88
2020/12/29 01:32:03;;;;;;;0.60;0.43;;;;;;;2.10;100.00;151906.53;5056818;27;20436;-87
2020/12/29 01:34:38;;;;;;;0.60;0.47;;;;;;;2.11;100.00;151907.84;5038812;28;20482;-88
2020/12/29 01:37:14;;;;;;;1.70;0.60;;;;;;;2.10;100.00;151906.53;5046926;28;20438;-88
2020/12/29 01:39:50;;;;;;;1.90;0.73;;;;;;;2.07;100.00;151898.81;5097769;27;20441;-88
2020/12/29 01:42:25;;;;;;;0.80;0.50;;;;;;;2.09;100.00;151902.72;5035858;28;20472;-89
2020/12/29 01:45:01;;;;;;;0.97;0.53;;;;;;;2.09;100.00;151902.72;5040041;28;20454;-88
2020/12/29 01:47:41;;;;;;;0.80;0.50;;;;;;;2.10;100.00;151905.25;5037019;28;20929;-89
2020/12/29 01:50:19;;;;;;;0.90;0.50;;;;;;;2.09;100.00;151903.94;5096550;27;20448;-89
2020/12/29 01:52:57;;;;;;;0.90;0.53;;;;;;;2.16;100.00;151921.97;5041902;27;20492;-89
2020/12/29 01:55:34;;;;;;;0.80;0.57;;;;;;;2.18;100.00;151925.81;5029033;28;20475;-89
2020/12/29 01:58:09;;;;;;;1.03;0.70;;;;;;;2.18;100.00;151927.13;5037894;28;20441;-89
2020/12/29 02:00:45;;;;;;;0.77;0.57;;;;;;;2.18;100.00;151927.13;5119245;27;20478;-89
2020/12/29 02:03:22;;;;;;;1.00;0.70;;;;;;;2.18;100.00;151927.13;5046551;28;20472;-90
2020/12/29 02:05:57;;;;;;;0.97;0.60;;;;;;;2.22;100.00;151937.44;5019818;28;20491;-90
2020/12/29 02:08:32;;;;;;;0.60;0.50;;;;;;;2.21;100.00;151934.84;5049199;28;20453;-89
2020/12/29 02:11:09;;;;;;;0.70;0.50;;;;;;;2.28;100.00;151951.53;5034001;28;20430;-90
2020/12/29 02:13:44;;;;;;;0.67;0.60;;;;;;;2.31;100.00;151960.53;5049427;27;20533;-90
2020/12/29 02:16:20;;;;;;;0.57;0.50;;;;;;;2.38;100.00;151978.53;5048634;27;20466;-90
2020/12/29 02:18:56;;;;;;;0.83;0.60;;;;;;;2.40;100.00;151982.41;5072157;27;20788;-90
2020/12/29 02:21:33;;;;;;;0.70;0.50;;;;;;;2.43;100.00;151991.44;5063123;27;20800;-90
2020/12/29 02:24:10;;;;;;;0.90;0.60;;;;;;;2.47;100.00;152001.69;5052962;28;20889;-90
2020/12/29 02:26:45;;;;;;;0.70;0.47;;;;;;;2.47;100.00;152000.41;5042321;28;20432;-90
2020/12/29 02:29:20;;;;;;;0.60;0.40;;;;;;;2.46;100.00;151997.84;5048608;28;20454;-91
2020/12/29 02:31:56;;;;;;;0.60;0.40;;;;;;;2.47;100.00;152001.69;5162467;27;20447;-90
2020/12/29 02:34:31;;;;;;;1.07;0.60;;;;;;;2.49;100.00;152004.28;5154185;27;20462;-90
2020/12/29 02:37:08;;;;;;;0.60;0.40;;;;;;;2.54;100.00;152018.44;5116364;27;20475;-90
2020/12/29 02:39:49;;;;;;;0.50;0.40;;;;;;;2.60;100.00;152033.84;5052888;28;20479;-90
2020/12/29 02:42:24;;;;;;;1.43;0.40;;;;;;;2.63;100.00;152041.56;5037472;28;20463;-90
2020/12/29 02:44:59;;;;;;;0.80;0.40;;;;;;;2.59;100.00;152030.00;5053188;28;20439;-90
2020/12/29 02:47:34;;;;;;;0.60;0.37;;;;;;;2.60;100.00;152032.53;5057164;28;20808;-90
2020/12/29 02:50:10;;;;;;;0.67;0.40;;;;;;;2.63;100.00;152040.25;5075360;27;20463;-90
2020/12/29 02:52:45;;;;;;;0.43;0.27;;;;;;;2.65;99.46;152046.69;5062140;28;20443;-91
2020/12/29 02:55:21;;;;;;;0.50;0.40;;;;;;;2.63;100.00;152040.25;5052412;28;20495;-91
2020/12/29 02:57:56;;;;;;;0.70;0.50;;;;;;;2.69;99.60;152055.72;5052384;28;20442;-90
2020/12/29 03:00:32;;;;;;;0.53;0.40;;;;;;;2.71;100.00;152062.16;5052493;27;20538;-91
2020/12/29 03:03:07;;;;;;;2.47;0.40;;;;;;;2.72;100.00;152063.44;5052146;28;20454;-90
2020/12/29 03:05:42;;;;;;;0.90;0.50;;;;;;;2.64;100.00;152042.84;5052322;28;20447;-91
2020/12/29 03:08:17;;;;;;;0.67;0.30;;;;;;;2.63;100.00;152040.25;5052097;28;20538;-91
2020/12/29 03:10:53;;;;;;;0.60;0.47;;;;;;;2.65;100.00;152045.44;5052166;28;20535;-91
2020/12/29 03:13:29;;;;;;;0.60;0.40;;;;;;;2.66;100.00;152048.00;5041262;28;20827;-90
2020/12/29 03:16:04;;;;;;;1.23;0.40;;;;;;;2.64;100.00;152044.16;5033355;28;20945;-90
2020/12/29 03:18:40;;;;;;;0.70;0.40;;;;;;;2.58;100.00;152028.72;5136283;27;20464;-90
2020/12/29 03:21:15;;;;;;;0.80;0.30;;;;;;;2.58;100.00;152028.72;5033467;28;20412;-90
2020/12/29 03:23:51;;;;;;;0.50;0.30;;;;;;;2.65;100.00;152045.44;5047057;28;20929;-91
2020/12/29 03:26:27;;;;;;;0.60;0.30;;;;;;;2.61;100.00;152036.44;5051696;28;20438;-90
2020/12/29 03:29:02;;;;;;;0.60;0.30;;;;;;;2.54;100.00;152017.16;5053019;28;20913;-90
2020/12/29 03:31:43;;;;;;;0.60;0.40;;;;;;;2.53;100.00;152014.56;5036800;28;20442;-91
2020/12/29 03:34:24;;;;;;;0.67;0.47;;;;;;;2.47;100.00;152000.41;5087388;27;20462;-91
2020/12/29 03:36:59;;;;;;;0.70;0.40;;;;;;;2.47;100.00;152000.41;5051680;28;20461;-91
2020/12/29 03:39:35;;;;;;;0.50;0.37;;;;;;;2.44;100.00;151992.69;5107989;27;20533;-91
2020/12/29 03:42:11;;;;;;;1.20;0.60;;;;;;;2.41;100.00;151984.97;5036368;28;20435;-91
2020/12/29 03:44:47;;;;;;;0.60;0.37;;;;;;;2.43;100.00;151990.13;5053043;28;20432;-91
2020/12/29 03:47:22;;;;;;;0.53;0.40;;;;;;;2.45;100.00;151996.56;5036142;28;20465;-91
2020/12/29 03:49:57;;;;;;;2.30;0.60;;;;;;;2.46;100.00;151999.09;5067445;28;20453;-91
2020/12/29 03:52:33;;;;;;;0.50;0.37;;;;;;;2.39;100.00;151981.13;5070135;28;20454;-91
2020/12/29 03:55:08;;;;;;;0.60;0.40;;;;;;;2.41;100.00;151986.25;5071737;28;20442;-91
2020/12/29 03:57:44;;;;;;;0.83;0.40;;;;;;;2.44;100.00;151993.97;5059212;28;20443;-91
2020/12/29 04:00:19;;;;;;;0.43;0.30;;;;;;;2.43;100.00;151991.44;5035965;28;20527;-91
2020/12/29 04:02:54;;;;;;;0.60;0.40;;;;;;;2.41;100.00;151986.25;5048768;28;20447;-91
2020/12/29 04:05:30;;;;;;;0.73;0.33;;;;;;;2.42;100.00;151988.84;5051758;28;20443;-91
2020/12/29 04:08:05;;;;;;;4.73;0.63;;;;;;;2.41;100.00;151986.25;5051336;28;20438;-91
2020/12/29 04:10:40;;;;;;;0.40;0.30;;;;;;;2.42;100.00;151988.84;5036062;28;20550;-91
2020/12/29 04:13:16;;;;;;;0.60;0.43;;;;;;;2.41;100.00;151986.25;5052611;28;20778;-91
2020/12/29 04:15:51;;;;;;;0.73;0.40;;;;;;;2.43;100.00;151991.44;5051178;28;21002;-91
2020/12/29 04:18:27;;;;;;;1.57;0.50;;;;;;;2.48;100.00;152003.00;5035678;28;20449;-91
2020/12/29 04:21:02;;;;;;;1.33;0.40;;;;;;;2.50;100.00;152006.84;5063311;28;20450;-90
2020/12/29 04:23:37;;;;;;;0.70;0.40;;;;;;;2.44;100.00;151992.69;5057731;27;20447;-91
2020/12/29 04:26:14;;;;;;;1.90;0.50;;;;;;;2.46;100.00;151999.09;5050768;28;20430;-91
2020/12/29 04:28:50;;;;;;;0.70;0.37;;;;;;;2.44;100.00;151993.97;5051490;28;20447;-91
2020/12/29 04:31:25;;;;;;;1.30;0.50;;;;;;;2.41;100.00;151986.25;5051913;27;20443;-91
2020/12/29 04:34:00;;;;;;;2.73;0.47;;;;;;;2.41;100.00;151986.25;5145632;27;20476;-91
2020/12/29 04:36:36;;;;;;;1.27;0.57;;;;;;;2.34;100.00;151968.25;5155676;27;20455;-92
2020/12/29 04:39:11;;;;;;;2.23;0.70;;;;;;;2.37;100.00;151976.00;5120897;27;20439;-91
2020/12/29 04:41:51;;;;;;;0.90;0.60;;;;;;;2.31;100.00;151959.25;5050952;28;20770;-91
2020/12/29 04:44:27;;;;;;;0.80;0.50;;;;;;;2.36;100.00;151972.09;5050723;27;20442;-91
2020/12/29 04:47:03;;;;;;;1.27;0.40;;;;;;;2.41;100.00;151986.25;5051755;27;20439;-91
2020/12/29 04:49:39;;;;;;;1.03;0.47;;;;;;;2.41;100.00;151986.25;5155849;27;20437;-91
2020/12/29 04:52:15;;;;;;;3.03;0.50;;;;;;;2.42;100.00;151988.84;5052234;27;20460;-91
2020/12/29 04:54:52;;;;;;;0.70;0.50;;;;;;;2.47;100.00;152000.41;5051519;28;20491;-91
2020/12/29 04:57:28;;;;;;;0.90;0.50;;;;;;;2.49;100.00;152005.53;5054268;27;20460;-91
2020/12/29 05:00:06;;;;;;;0.60;0.50;;;;;;;2.47;100.00;152001.69;5075106;27;20546;-91
2020/12/29 05:02:42;;;;;;;1.60;0.43;;;;;;;2.44;100.00;151993.97;5061188;27;20428;-91
2020/12/29 05:05:17;;;;;;;0.73;0.50;;;;;;;2.44;100.00;151993.97;5065090;27;20491;-90
2020/12/29 05:07:52;;;;;;;0.70;0.33;;;;;;;2.43;100.00;151991.44;5051374;28;20814;-91
2020/12/29 05:10:28;;;;;;;0.60;0.30;;;;;;;2.42;100.00;151988.84;5050485;27;20518;-91
2020/12/29 05:13:04;;;;;;;2.80;1.37;;;;;;;2.40;100.00;151982.41;5094839;27;20450;-91
2020/12/29 05:15:41;;;;;;;0.80;0.57;;;;;;;2.42;100.00;151987.53;5139314;27;20473;-91
2020/12/29 05:18:16;;;;;;;1.30;0.57;;;;;;;2.42;100.00;151987.53;5139110;27;20438;-91
2020/12/29 05:20:52;;;;;;;0.70;0.47;;;;;;;2.39;100.00;151981.13;5155175;27;20429;-91
2020/12/29 05:23:27;;;;;;;1.27;0.50;;;;;;;2.40;100.00;151983.72;5058113;27;20453;-91
2020/12/29 05:26:02;;;;;;;1.00;0.60;;;;;;;2.38;100.00;151978.53;5052109;28;20444;-91
2020/12/29 05:28:38;;;;;;;0.70;0.40;;;;;;;2.37;100.00;151974.69;5035053;28;20836;-91
2020/12/29 05:31:15;;;;;;;3.10;0.77;;;;;;;2.36;100.00;151973.41;5082075;27;20806;-90
2020/12/29 05:33:51;;;;;;;0.73;0.53;;;;;;;2.35;100.00;151970.84;5132822;27;20544;-91
2020/12/29 05:36:27;;;;;;;1.53;0.47;;;;;;;2.42;100.00;151988.84;5159049;27;20550;-91
2020/12/29 05:39:08;;;;;;;1.17;0.30;;;;;;;2.40;100.00;151983.72;5068968;27;20917;-91
2020/12/29 05:41:45;;;;;;;0.90;0.37;;;;;;;2.40;100.00;151983.72;5049912;28;20805;-91
2020/12/29 05:44:26;;;;;;;0.60;0.30;;;;;;;2.40;100.00;151982.41;5050141;28;20849;-91
2020/12/29 05:47:04;;;;;;;1.00;0.60;;;;;;;2.36;100.00;151973.41;5049859;28;20929;-91
2020/12/29 05:49:39;;;;;;;0.67;0.40;;;;;;;2.31;100.00;151960.53;5050139;28;20442;-91
2020/12/29 05:52:15;;;;;;;1.40;0.40;;;;;;;2.32;100.00;151963.13;5049662;27;20430;-91
2020/12/29 05:54:51;;;;;;;0.60;0.37;;;;;;;2.29;100.00;151955.41;5051394;28;20904;-91
2020/12/29 05:57:26;;;;;;;0.70;0.50;;;;;;;2.28;100.00;151951.53;5049775;28;20462;-90
2020/12/29 06:00:01;;;;;;;1.40;0.57;;;;;;;2.26;100.00;151946.41;5049960;28;20513;-91
2020/12/29 06:02:45;;;;;;;0.80;0.40;;;;;;;2.21;100.00;151933.53;5049777;28;20801;-91
2020/12/29 06:05:22;;;;;;;1.33;0.50;;;;;;;2.19;100.00;151929.72;5049898;28;20451;-91
2020/12/29 06:07:59;;;;;;;1.10;0.37;;;;;;;2.20;100.00;151932.25;5056213;28;20431;-90
2020/12/29 06:10:36;;;;;;;1.10;0.50;;;;;;;2.17;100.00;151924.53;5050136;27;20531;-91
2020/12/29 06:13:12;;;;;;;1.67;0.60;;;;;;;2.15;100.00;151919.41;5048069;28;20901;-91
2020/12/29 06:15:56;;;;;;;1.67;0.50;;;;;;;2.16;100.00;151921.97;5049989;28;20474;-91
2020/12/29 06:18:35;;;;;;;0.60;0.30;;;;;;;2.13;100.00;151912.97;5068843;28;20975;-91
2020/12/29 06:21:11;;;;;;;0.73;0.40;;;;;;;2.14;100.00;151915.56;5038244;28;20765;-91
2020/12/29 06:23:48;;;;;;;0.90;0.57;;;;;;;2.14;100.00;151916.84;5053202;28;20446;-91
2020/12/29 06:26:33;;;;;;;0.83;0.70;;;;;;;2.11;100.00;151909.13;5053384;28;20455;-91
2020/12/29 06:29:11;;;;;;;1.30;0.70;;;;;;;2.12;100.00;151911.69;5052708;28;20442;-91
2020/12/29 06:31:47;;;;;;;0.90;0.40;;;;;;;2.13;100.00;151914.25;5052910;28;20438;-91
2020/12/29 06:34:23;;;;;;;0.87;0.53;;;;;;;2.15;100.00;151919.41;5052577;27;20466;-91
2020/12/29 06:37:06;;;;;;;1.17;0.70;;;;;;;2.16;100.00;151920.69;5038121;28;20546;-91
2020/12/29 06:39:46;;;;;;;1.07;0.80;;;;;;;2.17;100.00;151924.53;5033014;28;20553;-91
2020/12/29 06:42:22;;;;;;;1.90;0.50;;;;;;;2.15;100.00;151919.41;5035422;28;20808;-91
2020/12/29 06:44:58;;;;;;;1.00;0.60;;;;;;;2.18;100.00;151927.13;5052788;28;20533;-91
2020/12/29 06:47:37;;;;;;;0.83;0.57;;;;;;;2.16;100.00;151921.97;5053346;27;20509;-91
2020/12/29 06:50:24;;;;;;;1.00;0.57;;;;;;;2.18;100.00;151927.13;5046531;28;20443;-91
2020/12/29 06:53:02;;;;;;;0.70;0.40;;;;;;;2.16;100.00;151920.69;5145056;27;20442;-90
2020/12/29 06:55:38;;;;;;;1.03;0.50;;;;;;;2.17;100.00;151924.53;5052333;28;20443;-91
2020/12/29 06:58:29;;;;;;;1.67;0.60;;;;;;;2.17;100.00;151924.53;5052529;28;20518;-92
2020/12/29 07:01:19;;;;;;;1.00;0.50;;;;;;;2.12;100.00;151911.69;5141760;27;20450;-92
2020/12/29 07:04:02;;;;;;;3.60;0.70;;;;;;;2.16;100.00;151920.69;5064267;27;20449;-92
2020/12/29 07:06:38;;;;;;;0.70;0.60;;;;;;;2.14;100.00;151916.84;5139542;27;20429;-93
2020/12/29 07:09:27;;;;;;;1.30;0.63;;;;;;;2.20;100.00;151932.25;5097682;27;20477;-93
2020/12/29 07:12:07;;;;;;;2.90;0.50;;;;;;;2.25;100.00;151943.84;5033043;28;20546;-92
2020/12/29 07:14:42;;;;;;;1.53;0.63;;;;;;;2.20;100.00;151932.25;5032976;28;20440;-93
2020/12/29 07:17:24;;;;;;;2.67;0.90;;;;;;;2.25;100.00;151945.09;5087991;27;20456;-92
2020/12/29 07:19:59;;;;;;;1.83;0.70;;;;;;;2.26;100.00;151947.69;5141772;27;20457;-92
2020/12/29 07:22:36;;;;;;;2.30;0.73;;;;;;;2.24;100.00;151941.25;5157305;27;20525;-92
2020/12/29 07:25:11;;;;;;;1.90;0.70;;;;;;;2.24;100.00;151942.56;5158957;27;20427;-92
2020/12/29 07:27:49;;;;;;;1.23;0.70;;;;;;;2.26;100.00;151946.41;5088917;27;20466;-92
2020/12/29 07:30:24;;;;;;;0.80;0.50;;;;;;;2.27;100.00;151950.28;5052839;28;20454;-93
2020/12/29 07:33:01;;;;;;;1.20;0.70;;;;;;;2.27;100.00;151950.28;5036847;28;20438;-93
2020/12/29 07:35:37;;;;;;;2.03;0.70;;;;;;;2.32;100.00;151963.13;5052353;28;20443;-92
2020/12/29 07:38:15;;;;;;;1.30;0.70;;;;;;;2.32;100.00;151963.13;5052459;28;20474;-93
2020/12/29 07:40:50;;;;;;;1.13;0.70;;;;;;;2.32;100.00;151963.13;5053299;28;20742;-92
2020/12/29 07:43:26;;;;;;;2.63;0.63;;;;;;;2.32;100.00;151963.13;5051916;28;20427;-92
2020/12/29 07:46:01;;;;;;;0.90;0.60;;;;;;;2.30;100.00;151957.94;5044552;28;20452;-92
2020/12/29 07:48:37;;;;;;;3.77;1.00;;;;;;;2.33;100.00;151965.66;5032844;28;20441;-92
2020/12/29 07:51:12;;;;;;;1.13;0.80;;;;;;;2.32;100.00;151963.13;5061487;28;20451;-94
2020/12/29 07:53:48;;;;;;;1.70;0.93;;;;;;;2.34;100.00;151966.97;5052155;28;20789;-93
2020/12/29 07:56:23;;;;;;;1.50;1.10;;;;;;;2.35;100.00;151969.56;5052663;28;20463;-93
2020/12/29 07:59:07;;;;;;;1.00;0.60;;;;;;;2.40;100.00;151982.41;5037685;28;20435;-93
2020/12/29 08:01:50;;;;;;;2.50;0.60;;;;;;;2.40;100.00;151983.72;5036505;28;20451;-93
2020/12/29 08:04:27;;;;;;;1.20;0.90;;;;;;;2.39;100.00;151979.81;5053548;28;20428;-93
2020/12/29 08:07:08;;;;;;;1.60;0.60;;;;;;;2.42;100.00;151987.53;5052021;28;20523;-94
2020/12/29 08:09:48;;;;;;;1.17;0.77;;;;;;;2.42;100.00;151988.84;5141156;27;20442;-93
2020/12/29 08:12:23;;;;;;;1.00;0.80;;;;;;;2.46;100.00;151999.09;5158053;27;20418;-92
2020/12/29 08:14:58;;;;;;;1.30;1.03;;;;;;;2.46;100.00;151997.84;5157618;27;20774;-91
2020/12/29 08:17:34;;;;;;;0.70;0.67;;;;;;;2.50;100.00;152006.84;5076791;27;20470;-82
2020/12/29 08:20:09;;;;;;;1.63;0.70;;;;;;;2.55;100.00;152019.69;5058962;27;20450;-89
2020/12/29 08:22:45;;;;;;;1.70;1.00;;;;;;;2.59;100.00;152030.00;5120293;27;20438;-91
2020/12/29 08:25:21;;;;;;;1.13;0.90;;;;;;;2.61;100.00;152035.13;5051013;27;20463;-91
2020/12/29 08:27:58;;;;;;;2.07;1.00;;;;;;;2.63;100.00;152040.25;5053054;27;20900;-91
2020/12/29 08:30:34;;;;;;;1.63;1.00;;;;;;;2.67;100.00;152051.88;5079413;27;20455;-90
2020/12/29 08:33:09;;;;;;;2.87;1.77;;;;;;;2.71;100.00;152062.16;5050782;27;20470;-91
2020/12/29 08:35:46;;;;;;;3.27;2.00;;;;;;;2.76;100.00;152073.72;5049714;27;20432;-91
2020/12/29 08:38:33;;;;;;;2.87;1.23;;;;;;;2.82;100.00;152089.16;5050582;27;20856;-91
2020/12/29 08:41:16;;;;;;;1.50;0.90;;;;;;;2.79;100.00;152082.72;5137781;27;20427;-91
2020/12/29 08:43:52;;;;;;;1.97;0.83;;;;;;;2.76;100.00;152075.00;5016047;28;20449;-91
2020/12/29 08:46:29;;;;;;;1.73;1.20;;;;;;;2.78;100.00;152078.88;5031568;28;20431;-91
2020/12/29 08:49:06;;;;;;;1.17;0.80;;;;;;;2.78;100.00;152078.88;5077361;27;20439;-91
2020/12/29 08:51:44;;;;;;;3.83;0.87;;;;;;;2.77;100.00;152076.28;5057807;27;20440;-93
2020/12/29 08:54:19;;;;;;;1.60;1.40;;;;;;;2.76;100.00;152073.72;5045068;27;20459;-91
2020/12/29 08:57:01;;;;;;;2.47;1.03;;;;;;;2.78;100.00;152078.88;5066541;27;20479;-92
2020/12/29 08:59:38;;;;;;;1.50;0.97;;;;;;;2.81;100.00;152086.56;5045590;27;20531;-86
2020/12/29 09:02:14;;;;;;;1.07;0.87;;;;;;;2.78;100.00;152078.88;5077750;27;20927;-91
2020/12/29 09:04:58;;;;;;;2.13;1.10;;;;;;;2.77;100.00;152076.28;5036063;27;20445;-89
2020/12/29 09:07:41;;;;;;;3.07;0.80;;;;;;;2.75;100.00;152071.16;5100369;27;20445;-92
2020/12/29 09:10:17;;;;;;;1.57;0.60;;;;;;;2.74;100.00;152069.88;5077396;27;20441;-89
2020/12/29 09:12:53;;;;;;;1.10;0.80;;;;;;;2.72;100.00;152063.44;5034322;28;20449;-89
2020/12/29 09:15:28;;;;;;;1.63;0.80;;;;;;;2.64;100.00;152044.16;5047509;27;20453;-89
2020/12/29 09:18:06;;;;;;;0.70;0.60;;;;;;;2.59;100.00;152030.00;5049430;28;20789;-92
2020/12/29 09:20:44;;;;;;;1.60;0.97;;;;;;;2.58;100.00;152027.41;5051940;28;20440;-92
2020/12/29 09:23:20;;;;;;;1.50;0.80;;;;;;;2.50;100.00;152008.13;5050744;27;20441;-92
2020/12/29 09:25:58;;;;;;;1.10;0.97;;;;;;;2.45;100.00;151996.56;5075279;27;20918;-92
2020/12/29 09:28:35;;;;;;;1.27;0.70;;;;;;;2.43;100.00;151991.44;5050976;28;20797;-92
2020/12/29 09:31:10;;;;;;;1.20;0.60;;;;;;;2.34;100.00;151966.97;5052078;28;20410;-92
2020/12/29 09:33:47;;;;;;;1.43;0.70;;;;;;;2.24;100.00;151942.56;5050120;28;20472;-92
2020/12/29 09:36:24;;;;;;;1.53;0.60;;;;;;;2.24;100.00;151942.56;5050378;28;20464;-94
2020/12/29 09:38:59;;;;;;;1.63;1.03;;;;;;;2.26;100.00;151946.41;5050696;28;20444;-93
2020/12/29 09:41:35;;;;;;;0.60;0.57;;;;;;;2.29;100.00;151955.41;5049986;28;20440;-92
2020/12/29 09:44:11;;;;;;;1.13;0.93;;;;;;;2.34;100.00;151968.25;5050235;28;20525;-92
2020/12/29 09:46:47;;;;;;;1.30;1.10;;;;;;;2.37;100.00;151976.00;5034975;28;20472;-91
2020/12/29 09:49:22;;;;;;;1.37;1.03;;;;;;;2.37;100.00;151976.00;5050577;28;20444;-91
2020/12/29 09:51:57;;;;;;;0.90;0.80;;;;;;;2.43;100.00;151990.13;5049872;28;20926;-91
2020/12/29 09:54:33;;;;;;;1.13;0.80;;;;;;;2.46;100.00;151997.84;5050214;28;20436;-92
2020/12/29 09:57:08;;;;;;;1.20;0.70;;;;;;;2.51;100.00;152009.41;5050505;28;20481;-93
2020/12/29 09:59:44;;;;;;;1.00;0.70;;;;;;;2.57;100.00;152024.88;5050209;28;20449;-92
2020/12/29 10:02:21;;;;;;;1.13;0.70;;;;;;;2.61;100.00;152035.13;5050085;28;20939;-92
2020/12/29 10:04:56;;;;;;;1.27;1.00;;;;;;;2.69;100.00;152055.72;5050120;28;20935;-92
2020/12/29 10:07:32;;;;;;;1.20;1.10;;;;;;;2.69;100.00;152057.00;5050285;28;20441;-92
2020/12/29 10:10:07;;;;;;;1.53;0.70;;;;;;;2.76;100.00;152073.72;5034873;28;20543;-92
2020/12/29 10:12:42;;;;;;;2.50;0.93;;;;;;;2.82;100.00;152089.16;5050867;28;20421;-91
2020/12/29 10:15:19;;;;;;;2.03;0.90;;;;;;;2.84;100.00;152094.28;5049708;28;20451;-91
2020/12/29 10:17:54;;;;;;;1.77;1.00;;;;;;;2.88;100.00;152105.91;5049611;28;20962;-91
2020/12/29 10:20:29;;;;;;;1.20;0.80;;;;;;;2.93;100.00;152117.47;5049524;28;20445;-90
2020/12/29 10:23:04;;;;;;;0.83;0.50;;;;;;;2.94;100.00;152121.31;5033982;28;20474;-91
2020/12/29 10:25:40;;;;;;;1.17;0.70;;;;;;;3.00;100.00;152135.47;5029717;28;20846;-91
2020/12/29 10:28:16;;;;;;;0.67;0.40;;;;;;;3.03;100.00;152144.47;5029420;28;20928;-91
2020/12/29 10:30:52;;;;;;;0.60;0.50;;;;;;;3.03;100.00;152144.47;5014599;28;20473;-92
2020/12/29 10:33:28;;;;;;;0.77;0.50;;;;;;;3.10;100.00;152161.19;5029568;28;20466;-92
2020/12/29 10:36:03;;;;;;;1.03;0.67;;;;;;;3.10;100.00;152159.94;5030080;28;20466;-90
2020/12/29 10:38:39;;;;;;;0.60;0.53;;;;;;;3.10;100.00;152161.19;5030021;28;20461;-90
2020/12/29 10:41:14;;;;;;;0.73;0.60;;;;;;;3.18;100.00;152181.78;5031125;28;20445;-90
2020/12/29 10:43:50;;;;;;;1.33;0.60;;;;;;;3.15;100.00;152174.03;5132123;27;20504;-91
2020/12/29 10:46:26;;;;;;;2.00;0.70;;;;;;;3.17;100.00;152179.22;5050042;27;20434;-91
2020/12/29 10:49:02;;;;;;;0.77;0.70;;;;;;;3.19;100.00;152183.06;5034779;28;20449;-93
2020/12/29 10:51:37;;;;;;;0.70;0.50;;;;;;;3.28;100.00;152207.56;5035000;28;20440;-93
2020/12/29 10:54:12;;;;;;;0.70;0.60;;;;;;;3.32;100.00;152216.53;5051283;28;20425;-93
2020/12/29 10:56:47;;;;;;;1.47;0.60;;;;;;;3.35;100.00;152225.56;5064505;27;20480;-90
2020/12/29 10:59:23;;;;;;;1.13;0.53;;;;;;;3.33;100.00;152219.13;5056494;27;20440;-91
2020/12/29 11:01:59;;;;;;;0.90;0.60;;;;;;;3.36;100.00;152226.84;5058657;28;20867;-91
2020/12/29 11:04:34;;;;;;;1.17;0.60;;;;;;;3.36;100.00;152228.09;5048763;28;20797;-90
2020/12/29 11:07:10;;;;;;;0.80;0.60;;;;;;;3.37;100.00;152229.41;5101946;27;20437;-93
2020/12/29 11:09:45;;;;;;;0.70;0.67;;;;;;;3.42;100.00;152243.56;5055867;27;20444;-93
2020/12/29 11:12:20;;;;;;;1.20;0.67;;;;;;;3.48;100.00;152259.00;5052540;28;20525;-92
2020/12/29 11:14:56;;;;;;;1.50;0.93;;;;;;;3.47;100.00;152256.44;5052320;28;20471;-91
2020/12/29 11:17:35;;;;;;;1.50;0.90;;;;;;;3.46;100.00;152253.88;5042380;28;20469;-91
2020/12/29 11:20:11;;;;;;;0.93;0.57;;;;;;;3.53;100.00;152271.88;5070707;27;20446;-76
2020/12/29 11:22:46;;;;;;;1.67;0.40;;;;;;;3.63;100.00;152297.63;5066915;27;20826;-78
2020/12/29 11:25:21;;;;;;;1.47;0.57;;;;;;;3.69;100.00;152313.09;5066853;27;20444;-75
2020/12/29 11:27:56;;;;;;;0.87;0.50;;;;;;;3.76;100.00;152329.78;5068173;27;20438;-78
2020/12/29 11:30:32;;;;;;;0.80;0.53;;;;;;;3.80;100.00;152338.81;5041123;27;20472;-76
2020/12/29 11:33:08;;;;;;;0.67;0.40;;;;;;;3.77;100.00;152331.09;5064155;27;20466;-78
2020/12/29 11:35:44;;;;;;;1.07;0.57;;;;;;;3.79;100.00;152336.22;5031210;27;20450;-78
2020/12/29 11:38:21;;;;;;;1.00;0.50;;;;;;;3.72;100.00;152318.22;5057916;27;20783;-78
2020/12/29 11:40:56;;;;;;;1.20;0.80;;;;;;;3.77;100.00;152331.09;5065630;27;21176;-78
2020/12/29 11:43:31;;;;;;;0.60;0.40;;;;;;;3.76;100.00;152328.53;5068237;27;20520;-78
2020/12/29 11:46:07;;;;;;;2.60;0.60;;;;;;;3.74;100.00;152324.66;5063104;27;20859;-78
2020/12/29 11:48:43;;;;;;;0.90;0.50;;;;;;;3.66;100.00;152305.34;5062621;27;20456;-78
2020/12/29 11:51:19;;;;;;;1.40;0.50;;;;;;;3.60;100.00;152288.66;5087806;27;20437;-78
2020/12/29 11:53:54;;;;;;;0.70;0.50;;;;;;;3.62;100.00;152293.78;5059132;27;20450;-78
2020/12/29 11:56:31;;;;;;;0.60;0.50;;;;;;;3.62;100.00;152295.06;5051961;27;20466;-78
2020/12/29 11:59:06;;;;;;;0.80;0.50;;;;;;;3.63;99.35;152297.63;5074665;27;20449;-78
2020/12/29 12:01:42;;;;;;;1.10;0.73;;;;;;;3.65;100.00;152302.75;5070000;27;20943;-78
2020/12/29 12:04:18;;;;;;;0.80;0.43;;;;;;;3.71;100.00;152315.69;5068143;27;20472;-78
2020/12/29 12:06:54;;;;;;;0.67;0.50;;;;;;;3.68;100.00;152309.19;5080267;27;20433;-78
2020/12/29 12:09:29;;;;;;;0.73;0.50;;;;;;;3.72;100.00;152318.22;5154018;27;20445;-78